createdAt,value
2023-02-11T07:01:52.679Z,38.22
2023-02-11T07:04:55.488Z,34.30
2023-02-11T07:07:57.934Z,33.10
2023-02-11T07:11:00.956Z,28.75
2023-02-11T07:14:05.300Z,25.95
2023-02-11T07:17:09.313Z,26.40
2023-02-11T07:20:14.520Z,24.37
2023-02-11T07:23:17.260Z,25.12
2023-02-11T07:26:23.014Z,23.73
2023-02-11T07:29:25.733Z,26.25
2023-02-11T07:32:29.467Z,25.17
2023-02-11T07:38:34.467Z,23.92
2023-02-11T07:41:38.153Z,25.48
2023-02-11T07:44:41.165Z,23.73
2023-02-11T07:47:45.806Z,24.05
2023-02-11T07:50:48.214Z,24.80
2023-02-11T07:53:51.012Z,23.35
2023-02-11T07:56:53.490Z,21.50
2023-02-11T07:59:56.156Z,25.15
2023-02-11T08:02:59.963Z,24.65
2023-02-11T08:06:03.732Z,29.30
2023-02-11T08:09:07.041Z,28.70
2023-02-11T08:12:09.837Z,26.27
2023-02-11T08:15:12.340Z,24.92
2023-02-11T08:18:16.369Z,27.13
2023-02-11T08:21:18.855Z,32.40
2023-02-11T08:24:21.654Z,27.33
2023-02-11T08:27:24.142Z,33.88
2023-02-11T08:30:27.637Z,45.50
2023-02-11T08:33:31.442Z,35.13
2023-02-11T08:39:36.676Z,21.98
2023-02-11T08:42:39.359Z,20.65
2023-02-11T08:45:41.774Z,25.00
2023-02-11T08:48:46.098Z,25.27
2023-02-11T08:54:51.169Z,25.27
2023-02-11T08:57:59.300Z,21.08
2023-02-11T09:01:02.143Z,26.37
2023-02-11T09:04:05.965Z,25.17
2023-02-11T09:10:10.804Z,21.37
2023-02-11T09:13:13.493Z,19.65
2023-02-11T09:16:17.278Z,21.70
2023-02-11T09:22:23.407Z,18.70
2023-02-11T09:25:26.178Z,18.83
2023-02-11T09:28:28.607Z,19.92
2023-02-11T09:31:32.095Z,18.90
2023-02-11T09:34:38.135Z,19.40
2023-02-11T09:40:43.202Z,15.68
2023-02-11T09:43:46.530Z,19.55
2023-02-11T09:46:53.356Z,19.23
2023-02-11T09:50:00.284Z,18.58
2023-02-11T09:53:03.821Z,19.27
2023-02-11T09:56:10.661Z,20.55
2023-02-11T09:59:13.729Z,22.13
2023-02-11T10:02:19.672Z,25.52
2023-02-11T10:05:31.778Z,20.60
2023-02-11T10:08:38.178Z,20.12
2023-02-11T10:11:48.045Z,18.17
2023-02-11T10:15:13.545Z,19.37
2023-02-11T10:18:38.671Z,19.23
2023-02-11T10:21:47.781Z,16.23
2023-02-11T10:24:52.318Z,18.30
2023-02-11T10:27:56.960Z,18.10
2023-02-11T10:31:01.080Z,17.17
2023-02-11T10:34:04.807Z,17.48
2023-02-11T10:37:09.221Z,18.58
2023-02-11T10:40:13.917Z,19.17
2023-02-11T10:43:17.522Z,17.60
2023-02-11T10:46:22.286Z,20.57
2023-02-11T10:49:34.575Z,17.77
2023-02-11T10:52:38.282Z,19.77
2023-02-11T10:58:45.391Z,19.05
2023-02-11T11:01:49.619Z,17.55
2023-02-11T11:07:59.369Z,17.10
2023-02-11T11:11:03.851Z,18.45
2023-02-11T11:14:13.241Z,18.60
2023-02-11T11:17:17.914Z,19.52
2023-02-11T11:20:23.327Z,17.62
2023-02-11T11:23:27.245Z,16.65
2023-02-11T11:26:38.852Z,18.67
2023-02-11T11:29:44.014Z,18.02
2023-02-11T11:32:46.716Z,17.60
2023-02-11T11:35:57.604Z,17.80
2023-02-11T11:39:04.037Z,15.35
2023-02-11T11:42:27.286Z,15.38
2023-02-11T11:45:29.946Z,17.45
2023-02-11T11:48:34.304Z,17.67
2023-02-11T11:51:39.163Z,17.87
2023-02-11T11:54:43.139Z,17.08
2023-02-11T11:57:45.844Z,19.20
2023-02-11T12:00:54.584Z,19.48
2023-02-11T12:04:22.320Z,17.35
2023-02-11T12:07:31.284Z,15.25
2023-02-11T12:10:50.419Z,16.85
2023-02-11T12:14:00.172Z,16.25
2023-02-11T12:17:04.861Z,16.83
2023-02-11T12:20:26.493Z,14.68
2023-02-11T12:23:36.977Z,14.35
2023-02-11T12:26:43.020Z,13.98
2023-02-11T12:29:53.505Z,15.35
2023-02-11T12:32:59.169Z,16.17
2023-02-11T12:36:03.820Z,15.23
2023-02-11T12:39:12.406Z,14.82
2023-02-11T12:42:43.332Z,14.93
2023-02-11T12:46:17.953Z,15.43
2023-02-11T12:52:36.003Z,16.12
2023-02-11T12:55:40.019Z,17.73
2023-02-11T12:58:45.705Z,16.52
2023-02-11T13:01:48.619Z,14.75
2023-02-11T13:04:53.316Z,16.55
2023-02-11T13:07:58.679Z,15.90
2023-02-11T13:11:02.348Z,24.50
2023-02-11T13:14:07.888Z,18.23
2023-02-11T13:17:16.037Z,16.77
2023-02-11T13:20:24.883Z,16.00
2023-02-11T13:23:31.774Z,17.37
2023-02-11T13:26:39.513Z,17.42
2023-02-11T13:30:21.332Z,15.90
2023-02-11T13:33:34.970Z,15.05
2023-02-11T13:36:37.401Z,15.32
2023-02-11T13:39:40.054Z,16.20
2023-02-11T13:42:48.930Z,13.32
2023-02-11T13:45:53.613Z,14.43
2023-02-11T13:48:56.127Z,13.82
2023-02-11T13:51:59.056Z,14.38
2023-02-11T13:55:04.875Z,16.27
2023-02-11T13:58:37.221Z,14.68
2023-02-11T14:01:42.757Z,15.38
2023-02-11T14:05:28.129Z,13.43
2023-02-11T14:08:49.124Z,12.48
2023-02-11T14:11:52.234Z,14.05
2023-02-11T14:15:02.523Z,12.98
2023-02-11T14:18:35.966Z,15.07
2023-02-11T14:21:40.347Z,16.05
2023-02-11T14:24:48.496Z,15.45
2023-02-11T14:27:57.065Z,13.15
2023-02-11T14:31:03.182Z,13.75
2023-02-11T14:34:14.556Z,13.50
2023-02-11T14:37:22.878Z,12.65
2023-02-11T14:40:28.158Z,13.75
2023-02-11T14:43:33.372Z,13.20
2023-02-11T14:46:35.806Z,12.35
2023-02-11T14:49:39.422Z,12.40
2023-02-11T14:52:43.182Z,12.63
2023-02-11T14:55:47.205Z,12.43
2023-02-11T14:58:51.917Z,11.93
2023-02-11T15:01:54.937Z,12.70
2023-02-11T15:05:16.336Z,11.80
2023-02-11T15:08:20.431Z,13.70
2023-02-11T15:11:23.715Z,12.27
2023-02-11T15:14:27.503Z,14.38
2023-02-11T15:17:30.691Z,17.20
2023-02-11T15:20:33.505Z,18.50
2023-02-11T15:23:37.360Z,18.08
2023-02-11T15:29:43.274Z,12.93
2023-02-11T15:32:46.050Z,16.98
